sensor_id;sensor_type;location;lat;lon;timestamp;temperature;humidity
43671;DHT22;29267;50.906;7.248;2023-03-26T00:00:05;8.40;99.90
43671;DHT22;29267;50.906;7.248;2023-03-26T00:02:33;8.40;99.90
43671;DHT22;29267;50.906;7.248;2023-03-26T00:04:59;8.40;99.90
43671;DHT22;29267;50.906;7.248;2023-03-26T00:07:25;8.40;99.90
43671;DHT22;29267;50.906;7.248;2023-03-26T00:09:52;8.40;99.90
43671;DHT22;29267;50.906;7.248;2023-03-26T00:12:18;8.40;99.90
43671;DHT22;29267;50.906;7.248;2023-03-26T00:14:44;8.30;99.90
43671;DHT22;29267;50.906;7.248;2023-03-26T00:17:09;8.40;99.90
43671;DHT22;29267;50.906;7.248;2023-03-26T00:19:35;8.40;99.90
43671;DHT22;29267;50.906;7.248;2023-03-26T00:22:01;8.40;99.90
43671;DHT22;29267;50.906;7.248;2023-03-26T00:24:28;8.50;99.90
43671;DHT22;29267;50.906;7.248;2023-03-26T00:26:54;8.50;99.90
43671;DHT22;29267;50.906;7.248;2023-03-26T00:29:21;8.50;99.90
43671;DHT22;29267;50.906;7.248;2023-03-26T00:31:52;8.50;99.90
43671;DHT22;29267;50.906;7.248;2023-03-26T00:34:18;8.50;99.90
43671;DHT22;29267;50.906;7.248;2023-03-26T00:36:43;8.50;99.90
43671;DHT22;29267;50.906;7.248;2023-03-26T00:39:11;8.50;99.90
43671;DHT22;29267;50.906;7.248;2023-03-26T00:41:38;8.50;99.90
43671;DHT22;29267;50.906;7.248;2023-03-26T00:44:07;8.40;99.90
43671;DHT22;29267;50.906;7.248;2023-03-26T00:46:33;8.40;99.90
43671;DHT22;29267;50.906;7.248;2023-03-26T00:49:00;8.30;99.90
43671;DHT22;29267;50.906;7.248;2023-03-26T00:51:28;8.30;99.90
43671;DHT22;29267;50.906;7.248;2023-03-26T00:53:55;8.10;99.90
43671;DHT22;29267;50.906;7.248;2023-03-26T00:56:21;8.10;99.90
43671;DHT22;29267;50.906;7.248;2023-03-26T00:58:46;8.10;99.90
43671;DHT22;29267;50.906;7.248;2023-03-26T01:01:18;8.10;99.90
43671;DHT22;29267;50.906;7.248;2023-03-26T01:03:45;8.10;99.90
43671;DHT22;29267;50.906;7.248;2023-03-26T01:06:15;8.10;99.90
43671;DHT22;29267;50.906;7.248;2023-03-26T01:08:46;8.10;99.90
43671;DHT22;29267;50.906;7.248;2023-03-26T01:11:22;8.10;99.90
43671;DHT22;29267;50.906;7.248;2023-03-26T01:13:50;8.10;99.90
43671;DHT22;29267;50.906;7.248;2023-03-26T01:19:11;8.20;99.90
43671;DHT22;29267;50.906;7.248;2023-03-26T01:21:40;8.20;99.90
43671;DHT22;29267;50.906;7.248;2023-03-26T01:24:08;8.20;99.90
43671;DHT22;29267;50.906;7.248;2023-03-26T01:30:03;8.20;99.90
43671;DHT22;29267;50.906;7.248;2023-03-26T01:46:10;8.20;99.90
43671;DHT22;29267;50.906;7.248;2023-03-26T01:48:40;8.20;99.90
43671;DHT22;29267;50.906;7.248;2023-03-26T01:51:07;8.20;99.90
43671;DHT22;29267;50.906;7.248;2023-03-26T01:53:35;8.10;99.90
43671;DHT22;29267;50.906;7.248;2023-03-26T01:56:20;8.10;99.90
43671;DHT22;29267;50.906;7.248;2023-03-26T02:07:47;7.80;99.90
43671;DHT22;29267;50.906;7.248;2023-03-26T02:10:08;7.70;99.90
43671;DHT22;29267;50.906;7.248;2023-03-26T02:12:36;7.50;99.90
43671;DHT22;29267;50.906;7.248;2023-03-26T02:15:02;7.30;99.90
43671;DHT22;29267;50.906;7.248;2023-03-26T02:17:28;7.20;99.90
43671;DHT22;29267;50.906;7.248;2023-03-26T02:19:55;7.00;99.90
43671;DHT22;29267;50.906;7.248;2023-03-26T02:22:21;6.90;99.90
43671;DHT22;29267;50.906;7.248;2023-03-26T02:24:47;6.80;99.90
43671;DHT22;29267;50.906;7.248;2023-03-26T02:27:13;6.80;99.90
43671;DHT22;29267;50.906;7.248;2023-03-26T02:29:42;6.70;99.90
43671;DHT22;29267;50.906;7.248;2023-03-26T02:32:09;6.60;99.90
43671;DHT22;29267;50.906;7.248;2023-03-26T02:34:38;6.60;99.90
43671;DHT22;29267;50.906;7.248;2023-03-26T02:37:04;6.50;99.90
43671;DHT22;29267;50.906;7.248;2023-03-26T02:39:30;6.60;99.90
43671;DHT22;29267;50.906;7.248;2023-03-26T02:41:56;6.60;99.90
43671;DHT22;29267;50.906;7.248;2023-03-26T02:44:22;6.60;99.90
43671;DHT22;29267;50.906;7.248;2023-03-26T02:46:47;6.70;99.90
43671;DHT22;29267;50.906;7.248;2023-03-26T02:49:13;6.80;99.90
43671;DHT22;29267;50.906;7.248;2023-03-26T02:51:38;6.80;99.90
43671;DHT22;29267;50.906;7.248;2023-03-26T02:54:04;6.80;99.90
43671;DHT22;29267;50.906;7.248;2023-03-26T02:56:32;6.90;99.90
43671;DHT22;29267;50.906;7.248;2023-03-26T02:58:58;6.90;99.90
43671;DHT22;29267;50.906;7.248;2023-03-26T03:01:24;6.90;99.90
43671;DHT22;29267;50.906;7.248;2023-03-26T03:03:49;6.90;99.90
43671;DHT22;29267;50.906;7.248;2023-03-26T03:06:17;6.90;99.90
43671;DHT22;29267;50.906;7.248;2023-03-26T03:08:44;6.90;99.90
43671;DHT22;29267;50.906;7.248;2023-03-26T03:11:17;6.90;99.90
43671;DHT22;29267;50.906;7.248;2023-03-26T03:13:43;7.00;99.90
43671;DHT22;29267;50.906;7.248;2023-03-26T03:16:10;7.00;99.90
43671;DHT22;29267;50.906;7.248;2023-03-26T03:18:35;7.10;99.90
43671;DHT22;29267;50.906;7.248;2023-03-26T03:21:02;7.10;99.90
43671;DHT22;29267;50.906;7.248;2023-03-26T03:23:28;7.10;99.90
43671;DHT22;29267;50.906;7.248;2023-03-26T03:25:54;7.20;99.90
43671;DHT22;29267;50.906;7.248;2023-03-26T03:28:21;7.20;99.90
43671;DHT22;29267;50.906;7.248;2023-03-26T03:30:48;7.20;99.90
43671;DHT22;29267;50.906;7.248;2023-03-26T03:33:20;7.30;99.90
43671;DHT22;29267;50.906;7.248;2023-03-26T03:35:47;7.30;99.90
43671;DHT22;29267;50.906;7.248;2023-03-26T03:38:14;7.30;99.90
43671;DHT22;29267;50.906;7.248;2023-03-26T03:40:39;7.30;99.90
43671;DHT22;29267;50.906;7.248;2023-03-26T03:43:05;7.30;99.90
43671;DHT22;29267;50.906;7.248;2023-03-26T03:45:31;7.40;99.90
43671;DHT22;29267;50.906;7.248;2023-03-26T03:47:57;7.40;99.90
43671;DHT22;29267;50.906;7.248;2023-03-26T03:50:23;7.40;99.90
43671;DHT22;29267;50.906;7.248;2023-03-26T03:52:49;7.40;99.90
43671;DHT22;29267;50.906;7.248;2023-03-26T03:55:15;7.40;99.90
43671;DHT22;29267;50.906;7.248;2023-03-26T03:57:40;7.40;99.90
43671;DHT22;29267;50.906;7.248;2023-03-26T04:00:07;7.40;99.90
43671;DHT22;29267;50.906;7.248;2023-03-26T04:02:33;7.40;99.90
43671;DHT22;29267;50.906;7.248;2023-03-26T04:05:00;7.40;99.90
43671;DHT22;29267;50.906;7.248;2023-03-26T04:07:27;7.30;99.90
43671;DHT22;29267;50.906;7.248;2023-03-26T04:09:55;7.40;99.90
43671;DHT22;29267;50.906;7.248;2023-03-26T04:12:21;7.40;99.90
43671;DHT22;29267;50.906;7.248;2023-03-26T04:14:47;7.40;99.90
43671;DHT22;29267;50.906;7.248;2023-03-26T04:17:13;7.40;99.90
43671;DHT22;29267;50.906;7.248;2023-03-26T04:19:40;7.40;99.90
43671;DHT22;29267;50.906;7.248;2023-03-26T04:22:05;7.30;99.90
43671;DHT22;29267;50.906;7.248;2023-03-26T04:24:32;7.30;99.90
43671;DHT22;29267;50.906;7.248;2023-03-26T04:27:10;7.30;99.90
43671;DHT22;29267;50.906;7.248;2023-03-26T04:29:40;7.30;99.90
43671;DHT22;29267;50.906;7.248;2023-03-26T04:32:28;7.30;99.90
43671;DHT22;29267;50.906;7.248;2023-03-26T04:35:01;7.30;99.90
43671;DHT22;29267;50.906;7.248;2023-03-26T04:37:39;7.30;99.90
43671;DHT22;29267;50.906;7.248;2023-03-26T04:40:15;7.20;99.90
43671;DHT22;29267;50.906;7.248;2023-03-26T04:42:41;7.30;99.90
43671;DHT22;29267;50.906;7.248;2023-03-26T04:45:11;7.30;99.90
43671;DHT22;29267;50.906;7.248;2023-03-26T04:47:38;7.30;99.90
43671;DHT22;29267;50.906;7.248;2023-03-26T04:50:05;7.20;99.90
43671;DHT22;29267;50.906;7.248;2023-03-26T04:52:32;7.20;99.90
43671;DHT22;29267;50.906;7.248;2023-03-26T04:54:58;7.20;99.90
43671;DHT22;29267;50.906;7.248;2023-03-26T04:57:38;7.20;99.90
43671;DHT22;29267;50.906;7.248;2023-03-26T05:00:08;7.20;99.90
43671;DHT22;29267;50.906;7.248;2023-03-26T05:02:41;7.20;99.90
43671;DHT22;29267;50.906;7.248;2023-03-26T05:05:08;7.10;99.90
43671;DHT22;29267;50.906;7.248;2023-03-26T05:07:34;7.10;99.90
43671;DHT22;29267;50.906;7.248;2023-03-26T05:10:00;7.10;99.90
43671;DHT22;29267;50.906;7.248;2023-03-26T05:12:28;7.10;99.90
43671;DHT22;29267;50.906;7.248;2023-03-26T05:14:54;7.10;99.90
43671;DHT22;29267;50.906;7.248;2023-03-26T05:17:21;7.10;99.90
43671;DHT22;29267;50.906;7.248;2023-03-26T05:19:47;7.10;99.90
43671;DHT22;29267;50.906;7.248;2023-03-26T05:22:13;7.10;99.90
43671;DHT22;29267;50.906;7.248;2023-03-26T05:24:39;7.10;99.90
43671;DHT22;29267;50.906;7.248;2023-03-26T05:27:04;7.20;99.90
43671;DHT22;29267;50.906;7.248;2023-03-26T05:29:30;7.10;99.90
43671;DHT22;29267;50.906;7.248;2023-03-26T05:31:56;7.10;99.90
43671;DHT22;29267;50.906;7.248;2023-03-26T05:34:22;7.10;99.90
43671;DHT22;29267;50.906;7.248;2023-03-26T05:36:51;7.10;99.90
43671;DHT22;29267;50.906;7.248;2023-03-26T05:39:16;7.10;99.90
43671;DHT22;29267;50.906;7.248;2023-03-26T05:41:42;7.10;99.90
43671;DHT22;29267;50.906;7.248;2023-03-26T05:44:07;7.10;99.90
43671;DHT22;29267;50.906;7.248;2023-03-26T05:46:33;7.10;99.90
43671;DHT22;29267;50.906;7.248;2023-03-26T05:48:59;7.10;99.90
43671;DHT22;29267;50.906;7.248;2023-03-26T05:51:24;7.10;99.90
43671;DHT22;29267;50.906;7.248;2023-03-26T05:53:50;7.10;99.90
43671;DHT22;29267;50.906;7.248;2023-03-26T05:56:16;7.20;99.90
43671;DHT22;29267;50.906;7.248;2023-03-26T05:58:41;7.20;99.90
43671;DHT22;29267;50.906;7.248;2023-03-26T06:01:10;7.20;99.90
43671;DHT22;29267;50.906;7.248;2023-03-26T06:03:42;7.30;99.90
43671;DHT22;29267;50.906;7.248;2023-03-26T06:06:14;7.30;99.90
43671;DHT22;29267;50.906;7.248;2023-03-26T06:08:45;7.20;99.90
43671;DHT22;29267;50.906;7.248;2023-03-26T06:11:15;7.30;99.90
43671;DHT22;29267;50.906;7.248;2023-03-26T06:13:42;7.30;99.90
43671;DHT22;29267;50.906;7.248;2023-03-26T06:16:09;7.30;99.90
43671;DHT22;29267;50.906;7.248;2023-03-26T06:18:35;7.30;99.90
43671;DHT22;29267;50.906;7.248;2023-03-26T06:21:02;7.30;99.90
43671;DHT22;29267;50.906;7.248;2023-03-26T06:23:27;7.30;99.90
43671;DHT22;29267;50.906;7.248;2023-03-26T06:25:54;7.30;99.90
43671;DHT22;29267;50.906;7.248;2023-03-26T06:28:20;7.30;99.90
43671;DHT22;29267;50.906;7.248;2023-03-26T06:30:46;7.40;99.90
43671;DHT22;29267;50.906;7.248;2023-03-26T06:33:11;7.40;99.90
43671;DHT22;29267;50.906;7.248;2023-03-26T06:35:37;7.40;99.90
43671;DHT22;29267;50.906;7.248;2023-03-26T06:38:03;7.40;99.90
43671;DHT22;29267;50.906;7.248;2023-03-26T06:40:28;7.40;99.90
43671;DHT22;29267;50.906;7.248;2023-03-26T06:42:54;7.40;99.90
43671;DHT22;29267;50.906;7.248;2023-03-26T06:45:25;7.40;99.90
43671;DHT22;29267;50.906;7.248;2023-03-26T06:47:51;7.40;99.90
43671;DHT22;29267;50.906;7.248;2023-03-26T06:50:17;7.50;99.90
43671;DHT22;29267;50.906;7.248;2023-03-26T06:52:43;7.50;99.90
43671;DHT22;29267;50.906;7.248;2023-03-26T06:55:08;7.50;99.90
43671;DHT22;29267;50.906;7.248;2023-03-26T06:57:35;7.60;99.90
43671;DHT22;29267;50.906;7.248;2023-03-26T07:00:01;7.70;99.90
43671;DHT22;29267;50.906;7.248;2023-03-26T07:02:27;7.60;99.90
43671;DHT22;29267;50.906;7.248;2023-03-26T07:04:53;7.70;99.90
43671;DHT22;29267;50.906;7.248;2023-03-26T07:07:19;7.80;99.90
43671;DHT22;29267;50.906;7.248;2023-03-26T07:09:46;7.90;99.90
43671;DHT22;29267;50.906;7.248;2023-03-26T07:12:13;7.90;99.90
43671;DHT22;29267;50.906;7.248;2023-03-26T07:14:39;7.90;99.90
43671;DHT22;29267;50.906;7.248;2023-03-26T07:17:05;7.90;99.90
43671;DHT22;29267;50.906;7.248;2023-03-26T07:19:30;7.80;99.90
43671;DHT22;29267;50.906;7.248;2023-03-26T07:21:56;7.80;99.90
43671;DHT22;29267;50.906;7.248;2023-03-26T07:24:22;7.90;99.90
43671;DHT22;29267;50.906;7.248;2023-03-26T07:27:05;7.90;99.90
43671;DHT22;29267;50.906;7.248;2023-03-26T07:29:36;7.90;99.90
43671;DHT22;29267;50.906;7.248;2023-03-26T07:32:18;7.80;99.90
43671;DHT22;29267;50.906;7.248;2023-03-26T07:34:55;7.80;99.90
43671;DHT22;29267;50.906;7.248;2023-03-26T07:45:56;7.80;99.90
43671;DHT22;29267;50.906;7.248;2023-03-26T07:48:24;7.80;99.90
43671;DHT22;29267;50.906;7.248;2023-03-26T07:50:52;7.80;99.90
43671;DHT22;29267;50.906;7.248;2023-03-26T07:53:19;7.80;99.90
43671;DHT22;29267;50.906;7.248;2023-03-26T08:15:31;7.90;99.90
43671;DHT22;29267;50.906;7.248;2023-03-26T08:18:10;8.00;99.90
43671;DHT22;29267;50.906;7.248;2023-03-26T08:20:52;7.90;99.90
43671;DHT22;29267;50.906;7.248;2023-03-26T08:26:12;8.00;99.90
43671;DHT22;29267;50.906;7.248;2023-03-26T08:29:09;7.90;99.90
43671;DHT22;29267;50.906;7.248;2023-03-26T08:31:39;8.00;99.90
43671;DHT22;29267;50.906;7.248;2023-03-26T08:34:11;7.90;99.90
43671;DHT22;29267;50.906;7.248;2023-03-26T08:36:38;8.00;99.90
43671;DHT22;29267;50.906;7.248;2023-03-26T08:39:04;8.00;99.90
43671;DHT22;29267;50.906;7.248;2023-03-26T08:56:17;8.00;99.90
43671;DHT22;29267;50.906;7.248;2023-03-26T09:12:29;8.00;99.90
43671;DHT22;29267;50.906;7.248;2023-03-26T09:35:58;7.60;99.90
43671;DHT22;29267;50.906;7.248;2023-03-26T09:37:57;7.60;99.90
43671;DHT22;29267;50.906;7.248;2023-03-26T09:40:35;7.60;99.90
43671;DHT22;29267;50.906;7.248;2023-03-26T09:45:56;7.70;99.90
43671;DHT22;29267;50.906;7.248;2023-03-26T09:48:37;7.80;99.90
43671;DHT22;29267;50.906;7.248;2023-03-26T09:54:31;7.70;99.90
43671;DHT22;29267;50.906;7.248;2023-03-26T09:59:59;7.70;99.90
43671;DHT22;29267;50.906;7.248;2023-03-26T10:02:41;7.70;99.90
43671;DHT22;29267;50.906;7.248;2023-03-26T10:13:29;7.70;99.90
43671;DHT22;29267;50.906;7.248;2023-03-26T10:18:48;7.70;99.90
43671;DHT22;29267;50.906;7.248;2023-03-26T10:22:00;7.70;99.90
43671;DHT22;29267;50.906;7.248;2023-03-26T10:24:38;7.60;99.90
43671;DHT22;29267;50.906;7.248;2023-03-26T10:27:30;7.60;99.90
43671;DHT22;29267;50.906;7.248;2023-03-26T10:30:24;7.70;99.90
43671;DHT22;29267;50.906;7.248;2023-03-26T10:52:48;8.90;99.90
43671;DHT22;29267;50.906;7.248;2023-03-26T10:58:12;8.90;99.90
43671;DHT22;29267;50.906;7.248;2023-03-26T11:00:59;8.90;99.90
43671;DHT22;29267;50.906;7.248;2023-03-26T11:06:49;8.70;99.90
43671;DHT22;29267;50.906;7.248;2023-03-26T11:09:50;8.90;99.90
43671;DHT22;29267;50.906;7.248;2023-03-26T11:12:19;8.90;99.90
43671;DHT22;29267;50.906;7.248;2023-03-26T11:14:56;8.90;99.90
43671;DHT22;29267;50.906;7.248;2023-03-26T11:17:44;8.90;99.90
43671;DHT22;29267;50.906;7.248;2023-03-26T11:20:19;8.90;99.90
43671;DHT22;29267;50.906;7.248;2023-03-26T11:33:55;8.90;99.90
43671;DHT22;29267;50.906;7.248;2023-03-26T11:36:25;8.90;99.90
43671;DHT22;29267;50.906;7.248;2023-03-26T11:38:56;9.00;99.90
43671;DHT22;29267;50.906;7.248;2023-03-26T11:41:26;8.90;99.90
43671;DHT22;29267;50.906;7.248;2023-03-26T11:44:28;8.90;99.90
43671;DHT22;29267;50.906;7.248;2023-03-26T11:46:57;9.10;99.90
43671;DHT22;29267;50.906;7.248;2023-03-26T11:49:26;9.20;99.90
43671;DHT22;29267;50.906;7.248;2023-03-26T11:51:53;9.30;99.90
43671;DHT22;29267;50.906;7.248;2023-03-26T11:54:19;9.40;99.90
43671;DHT22;29267;50.906;7.248;2023-03-26T11:56:46;9.30;99.90
43671;DHT22;29267;50.906;7.248;2023-03-26T11:59:27;9.40;99.90
43671;DHT22;29267;50.906;7.248;2023-03-26T12:04:40;9.30;99.90
43671;DHT22;29267;50.906;7.248;2023-03-26T12:07:30;9.30;99.90
43671;DHT22;29267;50.906;7.248;2023-03-26T12:10:03;9.30;99.90
43671;DHT22;29267;50.906;7.248;2023-03-26T12:12:35;9.30;99.90
43671;DHT22;29267;50.906;7.248;2023-03-26T12:15:03;9.40;99.90
43671;DHT22;29267;50.906;7.248;2023-03-26T12:17:35;9.30;99.90
43671;DHT22;29267;50.906;7.248;2023-03-26T12:20:20;9.30;99.90
43671;DHT22;29267;50.906;7.248;2023-03-26T12:22:47;9.40;99.90
43671;DHT22;29267;50.906;7.248;2023-03-26T12:25:29;9.40;99.90
43671;DHT22;29267;50.906;7.248;2023-03-26T12:28:18;9.30;99.90
43671;DHT22;29267;50.906;7.248;2023-03-26T12:30:51;9.30;99.90
43671;DHT22;29267;50.906;7.248;2023-03-26T12:33:26;9.20;99.90
43671;DHT22;29267;50.906;7.248;2023-03-26T12:35:53;9.40;99.90
43671;DHT22;29267;50.906;7.248;2023-03-26T12:41:04;9.40;99.90
43671;DHT22;29267;50.906;7.248;2023-03-26T12:46:18;9.60;99.90
43671;DHT22;29267;50.906;7.248;2023-03-26T12:48:45;9.80;99.90
43671;DHT22;29267;50.906;7.248;2023-03-26T13:07:57;9.70;99.90
43671;DHT22;29267;50.906;7.248;2023-03-26T13:10:46;9.50;99.90
43671;DHT22;29267;50.906;7.248;2023-03-26T13:16:13;9.50;99.90
43671;DHT22;29267;50.906;7.248;2023-03-26T13:19:06;9.60;99.90
43671;DHT22;29267;50.906;7.248;2023-03-26T13:22:13;9.60;99.90
43671;DHT22;29267;50.906;7.248;2023-03-26T13:25:13;9.60;99.90
43671;DHT22;29267;50.906;7.248;2023-03-26T13:28:03;9.70;99.90
43671;DHT22;29267;50.906;7.248;2023-03-26T13:33:31;10.00;99.90
43671;DHT22;29267;50.906;7.248;2023-03-26T13:38:55;10.10;99.90
43671;DHT22;29267;50.906;7.248;2023-03-26T13:47:40;10.10;99.90
43671;DHT22;29267;50.906;7.248;2023-03-26T13:50:20;10.30;99.90
43671;DHT22;29267;50.906;7.248;2023-03-26T14:01:08;10.20;99.90
43671;DHT22;29267;50.906;7.248;2023-03-26T14:06:37;9.70;99.90
43671;DHT22;29267;50.906;7.248;2023-03-26T14:09:30;9.70;99.90
43671;DHT22;29267;50.906;7.248;2023-03-26T14:12:25;9.60;99.90
43671;DHT22;29267;50.906;7.248;2023-03-26T14:15:02;9.60;99.90
43671;DHT22;29267;50.906;7.248;2023-03-26T14:17:53;9.60;99.90
43671;DHT22;29267;50.906;7.248;2023-03-26T14:20:41;9.70;99.90
43671;DHT22;29267;50.906;7.248;2023-03-26T14:40:27;9.70;99.90
43671;DHT22;29267;50.906;7.248;2023-03-26T14:53:51;10.30;99.90
43671;DHT22;29267;50.906;7.248;2023-03-26T15:11:13;10.80;99.90
43671;DHT22;29267;50.906;7.248;2023-03-26T15:36:37;10.10;99.90
43671;DHT22;29267;50.906;7.248;2023-03-26T15:41:57;9.70;99.90
43671;DHT22;29267;50.906;7.248;2023-03-26T15:47:25;9.40;99.90
43671;DHT22;29267;50.906;7.248;2023-03-26T15:52:55;9.20;99.90
43671;DHT22;29267;50.906;7.248;2023-03-26T15:55:33;9.30;99.90
43671;DHT22;29267;50.906;7.248;2023-03-26T15:58:14;9.20;99.90
43671;DHT22;29267;50.906;7.248;2023-03-26T16:00:55;9.40;99.90
43671;DHT22;29267;50.906;7.248;2023-03-26T16:03:56;9.40;99.90
43671;DHT22;29267;50.906;7.248;2023-03-26T16:06:40;9.40;99.90
43671;DHT22;29267;50.906;7.248;2023-03-26T16:09:44;9.40;99.90
43671;DHT22;29267;50.906;7.248;2023-03-26T16:14:41;9.40;99.90
43671;DHT22;29267;50.906;7.248;2023-03-26T16:17:18;9.40;99.90
43671;DHT22;29267;50.906;7.248;2023-03-26T16:19:57;9.30;99.90
43671;DHT22;29267;50.906;7.248;2023-03-26T16:22:55;9.20;99.90
43671;DHT22;29267;50.906;7.248;2023-03-26T16:25:53;9.00;99.90
43671;DHT22;29267;50.906;7.248;2023-03-26T16:28:34;8.90;99.90
43671;DHT22;29267;50.906;7.248;2023-03-26T16:33:56;8.70;99.90
43671;DHT22;29267;50.906;7.248;2023-03-26T16:41:51;8.70;99.90
43671;DHT22;29267;50.906;7.248;2023-03-26T16:44:44;8.70;99.90
43671;DHT22;29267;50.906;7.248;2023-03-26T16:50:20;8.60;99.90
43671;DHT22;29267;50.906;7.248;2023-03-26T16:53:09;8.50;99.90
43671;DHT22;29267;50.906;7.248;2023-03-26T16:55:48;8.50;99.90
43671;DHT22;29267;50.906;7.248;2023-03-26T16:58:54;8.40;99.90
43671;DHT22;29267;50.906;7.248;2023-03-26T17:01:48;8.30;99.90
43671;DHT22;29267;50.906;7.248;2023-03-26T17:06:50;8.30;99.90
43671;DHT22;29267;50.906;7.248;2023-03-26T17:12:35;8.20;99.90
43671;DHT22;29267;50.906;7.248;2023-03-26T17:15:12;8.10;99.90
43671;DHT22;29267;50.906;7.248;2023-03-26T17:20:28;8.00;99.90
43671;DHT22;29267;50.906;7.248;2023-03-26T17:23:08;8.00;99.90
43671;DHT22;29267;50.906;7.248;2023-03-26T17:25:43;8.00;99.90
43671;DHT22;29267;50.906;7.248;2023-03-26T17:31:15;7.90;99.90
43671;DHT22;29267;50.906;7.248;2023-03-26T17:33:42;7.90;99.90
43671;DHT22;29267;50.906;7.248;2023-03-26T17:41:13;7.70;99.90
43671;DHT22;29267;50.906;7.248;2023-03-26T17:43:51;7.70;99.90
43671;DHT22;29267;50.906;7.248;2023-03-26T17:46:32;7.70;99.90
43671;DHT22;29267;50.906;7.248;2023-03-26T17:49:19;7.70;99.90
43671;DHT22;29267;50.906;7.248;2023-03-26T17:51:58;7.60;99.90
43671;DHT22;29267;50.906;7.248;2023-03-26T17:54:30;7.60;99.90
43671;DHT22;29267;50.906;7.248;2023-03-26T17:57:05;7.60;99.90
43671;DHT22;29267;50.906;7.248;2023-03-26T17:59:34;7.60;99.90
43671;DHT22;29267;50.906;7.248;2023-03-26T18:02:03;7.50;99.90
43671;DHT22;29267;50.906;7.248;2023-03-26T18:12:42;7.50;99.90
43671;DHT22;29267;50.906;7.248;2023-03-26T18:17:46;7.40;99.90
43671;DHT22;29267;50.906;7.248;2023-03-26T18:20:38;7.50;99.90
43671;DHT22;29267;50.906;7.248;2023-03-26T18:23:10;7.40;99.90
43671;DHT22;29267;50.906;7.248;2023-03-26T18:25:37;7.40;99.90
43671;DHT22;29267;50.906;7.248;2023-03-26T18:28:05;7.40;99.90
43671;DHT22;29267;50.906;7.248;2023-03-26T18:30:30;7.40;99.90
43671;DHT22;29267;50.906;7.248;2023-03-26T18:33:10;7.30;99.90
43671;DHT22;29267;50.906;7.248;2023-03-26T18:35:44;7.40;99.90
43671;DHT22;29267;50.906;7.248;2023-03-26T18:38:17;7.30;99.90
43671;DHT22;29267;50.906;7.248;2023-03-26T18:40:44;7.40;99.90
43671;DHT22;29267;50.906;7.248;2023-03-26T18:43:15;7.40;99.90
43671;DHT22;29267;50.906;7.248;2023-03-26T18:45:43;7.30;99.90
43671;DHT22;29267;50.906;7.248;2023-03-26T18:48:11;7.30;99.90
43671;DHT22;29267;50.906;7.248;2023-03-26T18:50:42;7.30;99.90
43671;DHT22;29267;50.906;7.248;2023-03-26T18:53:19;7.20;99.90
43671;DHT22;29267;50.906;7.248;2023-03-26T18:55:46;7.20;99.90
43671;DHT22;29267;50.906;7.248;2023-03-26T18:58:32;7.20;99.90
43671;DHT22;29267;50.906;7.248;2023-03-26T19:01:03;7.20;99.90
43671;DHT22;29267;50.906;7.248;2023-03-26T19:03:33;7.10;99.90
43671;DHT22;29267;50.906;7.248;2023-03-26T19:06:01;7.10;99.90
43671;DHT22;29267;50.906;7.248;2023-03-26T19:08:29;7.10;99.90
43671;DHT22;29267;50.906;7.248;2023-03-26T19:10:57;7.10;99.90
43671;DHT22;29267;50.906;7.248;2023-03-26T19:13:22;7.10;99.90
43671;DHT22;29267;50.906;7.248;2023-03-26T19:15:50;7.10;99.90
43671;DHT22;29267;50.906;7.248;2023-03-26T19:18:18;7.10;99.90
43671;DHT22;29267;50.906;7.248;2023-03-26T19:20:51;7.00;99.90
43671;DHT22;29267;50.906;7.248;2023-03-26T19:23:20;7.10;99.90
43671;DHT22;29267;50.906;7.248;2023-03-26T19:25:50;7.00;99.90
43671;DHT22;29267;50.906;7.248;2023-03-26T19:28:34;7.00;99.90
43671;DHT22;29267;50.906;7.248;2023-03-26T19:31:24;7.00;99.90
43671;DHT22;29267;50.906;7.248;2023-03-26T19:34:00;6.90;99.90
43671;DHT22;29267;50.906;7.248;2023-03-26T19:36:31;6.90;99.90
43671;DHT22;29267;50.906;7.248;2023-03-26T19:41:30;6.90;99.90
43671;DHT22;29267;50.906;7.248;2023-03-26T19:44:01;6.90;99.90
43671;DHT22;29267;50.906;7.248;2023-03-26T19:46:31;6.80;99.90
43671;DHT22;29267;50.906;7.248;2023-03-26T19:48:57;6.70;99.90
43671;DHT22;29267;50.906;7.248;2023-03-26T19:51:34;6.70;99.90
43671;DHT22;29267;50.906;7.248;2023-03-26T19:54:13;6.70;99.90
43671;DHT22;29267;50.906;7.248;2023-03-26T19:56:40;6.70;99.90
43671;DHT22;29267;50.906;7.248;2023-03-26T19:59:06;6.70;99.90
43671;DHT22;29267;50.906;7.248;2023-03-26T20:01:32;6.70;99.90
43671;DHT22;29267;50.906;7.248;2023-03-26T20:04:00;6.60;99.90
43671;DHT22;29267;50.906;7.248;2023-03-26T20:06:28;6.60;99.90
43671;DHT22;29267;50.906;7.248;2023-03-26T20:08:54;6.60;99.90
43671;DHT22;29267;50.906;7.248;2023-03-26T20:11:34;6.50;99.90
43671;DHT22;29267;50.906;7.248;2023-03-26T20:14:13;6.50;99.90
43671;DHT22;29267;50.906;7.248;2023-03-26T20:16:39;6.50;99.90
43671;DHT22;29267;50.906;7.248;2023-03-26T20:19:04;6.50;99.90
43671;DHT22;29267;50.906;7.248;2023-03-26T20:21:31;6.50;99.90
43671;DHT22;29267;50.906;7.248;2023-03-26T20:23:59;6.40;99.90
43671;DHT22;29267;50.906;7.248;2023-03-26T20:26:25;6.40;99.90
43671;DHT22;29267;50.906;7.248;2023-03-26T20:28:50;6.40;99.90
43671;DHT22;29267;50.906;7.248;2023-03-26T20:31:22;6.40;99.90
43671;DHT22;29267;50.906;7.248;2023-03-26T20:33:49;6.40;99.90
43671;DHT22;29267;50.906;7.248;2023-03-26T20:36:16;6.40;99.90
43671;DHT22;29267;50.906;7.248;2023-03-26T20:38:43;6.30;99.90
43671;DHT22;29267;50.906;7.248;2023-03-26T20:41:16;6.30;99.90
43671;DHT22;29267;50.906;7.248;2023-03-26T20:43:42;6.30;99.90
43671;DHT22;29267;50.906;7.248;2023-03-26T20:46:20;6.30;99.90
43671;DHT22;29267;50.906;7.248;2023-03-26T20:48:46;6.30;99.90
43671;DHT22;29267;50.906;7.248;2023-03-26T20:51:13;6.30;99.90
43671;DHT22;29267;50.906;7.248;2023-03-26T20:53:40;6.30;99.90
43671;DHT22;29267;50.906;7.248;2023-03-26T20:56:24;6.20;99.90
43671;DHT22;29267;50.906;7.248;2023-03-26T20:58:50;6.30;99.90
43671;DHT22;29267;50.906;7.248;2023-03-26T21:01:18;6.20;99.90
43671;DHT22;29267;50.906;7.248;2023-03-26T21:03:45;6.20;99.90
43671;DHT22;29267;50.906;7.248;2023-03-26T21:06:11;6.20;99.90
43671;DHT22;29267;50.906;7.248;2023-03-26T21:08:39;6.20;99.90
43671;DHT22;29267;50.906;7.248;2023-03-26T21:11:30;6.20;99.90
43671;DHT22;29267;50.906;7.248;2023-03-26T21:14:02;6.20;99.90
43671;DHT22;29267;50.906;7.248;2023-03-26T21:16:30;6.20;99.90
43671;DHT22;29267;50.906;7.248;2023-03-26T21:18:56;6.20;99.90
43671;DHT22;29267;50.906;7.248;2023-03-26T21:27:23;6.10;99.90
43671;DHT22;29267;50.906;7.248;2023-03-26T21:29:54;6.10;99.90
43671;DHT22;29267;50.906;7.248;2023-03-26T21:32:20;6.00;99.90
43671;DHT22;29267;50.906;7.248;2023-03-26T21:34:47;6.00;99.90
43671;DHT22;29267;50.906;7.248;2023-03-26T21:37:14;6.10;99.90
43671;DHT22;29267;50.906;7.248;2023-03-26T21:39:40;6.00;99.90
43671;DHT22;29267;50.906;7.248;2023-03-26T21:42:09;6.00;99.90
43671;DHT22;29267;50.906;7.248;2023-03-26T21:44:36;5.90;99.90
43671;DHT22;29267;50.906;7.248;2023-03-26T21:47:02;6.00;99.90
43671;DHT22;29267;50.906;7.248;2023-03-26T21:49:28;5.90;99.90
43671;DHT22;29267;50.906;7.248;2023-03-26T21:51:54;5.90;99.90